Map

Track Data

SID SEASON NUMBER BASIN SUBBASIN NAME ISO_TIME NATURE LAT LON WMO_WIND WMO_PRES WMO_AGENCY TRACK_TYPE DIST2LAND LANDFALL IFLAG USA_AGENCY USA_ATCF_ID USA_LAT USA_LON USA_RECORD USA_STATUS USA_WIND USA_PRES USA_SSHS USA_R34_NE USA_R34_SE USA_R34_SW USA_R34_NW USA_R50_NE USA_R50_SE USA_R50_SW USA_R50_NW USA_R64_NE USA_R64_SE USA_R64_SW USA_R64_NW USA_POCI USA_ROCI USA_RMW USA_EYE TOKYO_LAT TOKYO_LON TOKYO_GRADE TOKYO_WIND TOKYO_PRES TOKYO_R50_DIR TOKYO_R50_LONG TOKYO_R50_SHORT TOKYO_R30_DIR TOKYO_R30_LONG TOKYO_R30_SHORT TOKYO_LAND CMA_LAT CMA_LON CMA_CAT CMA_WIND CMA_PRES HKO_LAT HKO_LON HKO_CAT HKO_WIND HKO_PRES NEWDELHI_LAT NEWDELHI_LON NEWDELHI_GRADE NEWDELHI_WIND NEWDELHI_PRES NEWDELHI_CI NEWDELHI_DP NEWDELHI_POCI REUNION_LAT REUNION_LON REUNION_TYPE REUNION_WIND REUNION_PRES REUNION_TNUM REUNION_CI REUNION_RMW REUNION_R34_NE REUNION_R34_SE REUNION_R34_SW REUNION_R34_NW REUNION_R50_NE REUNION_R50_SE REUNION_R50_SW REUNION_R50_NW REUNION_R64_NE REUNION_R64_SE REUNION_R64_SW REUNION_R64_NW BOM_LAT BOM_LON BOM_TYPE BOM_WIND BOM_PRES BOM_TNUM BOM_CI BOM_RMW BOM_R34_NE BOM_R34_SE BOM_R34_SW BOM_R34_NW BOM_R50_NE BOM_R50_SE BOM_R50_SW BOM_R50_NW BOM_R64_NE BOM_R64_SE BOM_R64_SW BOM_R64_NW BOM_ROCI BOM_POCI BOM_EYE BOM_POS_METHOD BOM_PRES_METHOD NADI_LAT NADI_LON NADI_CAT NADI_WIND NADI_PRES WELLINGTON_LAT WELLINGTON_LON WELLINGTON_WIND WELLINGTON_PRES DS824_LAT DS824_LON DS824_STAGE DS824_WIND DS824_PRES TD9636_LAT TD9636_LON TD9636_STAGE TD9636_WIND TD9636_PRES TD9635_LAT TD9635_LON TD9635_WIND TD9635_PRES TD9635_ROCI NEUMANN_LAT NEUMANN_LON NEUMANN_CLASS NEUMANN_WIND NEUMANN_PRES MLC_LAT MLC_LON MLC_CLASS MLC_WIND MLC_PRES USA_GUST BOM_GUST BOM_GUST_PER REUNION_GUST REUNION_GUST_PER USA_SEAHGT USA_SEARAD_NE USA_SEARAD_SE USA_SEARAD_SW USA_SEARAD_NW STORM_SPEED STORM_DIR
1970196N19154 1970 64 WP MM NOT_NAMED 1970-07-15 06:00:00 TS 19.0000 154.000 main 2248 2248 __O___________ -1 19.0000 154.000 0 1008 11 121
1970196N19154 1970 64 WP MM NOT_NAMED 1970-07-15 09:00:00 TS 18.7128 154.500 main 2306 2306 __P___________ -1 18.7128 154.500 0 1008 11 118
1970196N19154 1970 64 WP MM NOT_NAMED 1970-07-15 12:00:00 TS 18.5000 155.000 main 2354 2354 __O___________ -1 18.5000 155.000 0 1008 10 107
1970196N19154 1970 64 WP MM NOT_NAMED 1970-07-15 15:00:00 TS 18.4249 155.500 main 2393 2393 __P___________ -1 18.4249 155.500 0 1008 9 90
1970196N19154 1970 64 WP MM NOT_NAMED 1970-07-15 18:00:00 TS 18.5000 156.000 main 2415 2415 __O___________ -1 18.5000 156.000 0 1008 10 76
1970196N19154 1970 64 WP MM NOT_NAMED 1970-07-15 21:00:00 TS 18.6751 156.530 main 2429 2429 __P___________ -1 18.6751 156.530 0 1008 11 62
1970196N19154 1970 64 WP MM NOT_NAMED 1970-07-16 00:00:00 TS 19.0000 157.000 main 2435 2420 __O___________ -1 19.0000 157.000 0 1008 11 44
1970196N19154 1970 64 WP MM NOT_NAMED 1970-07-16 03:00:00 TS 19.4623 157.345 main 2411 2389 __P___________ -1 19.4623 157.345 0 1007 12 29
1970196N19154 1970 64 WP MM NOT_NAMED 1970-07-16 06:00:00 TS 20.0000 157.600 main 2389 2361 __O___________ -1 20.0000 157.600 0 1006 11 24
1970196N19154 1970 64 WP MM NOT_NAMED 1970-07-16 09:00:00 TS 20.5000 157.845 main 2361 2335 __P___________ -1 20.5000 157.845 0 1006 11 21
1970196N19154 1970 64 WP MM NOT_NAMED 1970-07-16 12:00:00 TS 21.0000 158.000 main 2335 2300 __O___________ -1 21.0000 158.000 0 1006 10 12
1970196N19154 1970 64 WP MM NOT_NAMED 1970-07-16 15:00:00 TS 21.4999 158.067 main 2300 2252 __P___________ -1 21.4999 158.067 0 1006 10 1
1970196N19154 1970 64 WP MM NOT_NAMED 1970-07-16 18:00:00 TS 22.0000 158.000 main 2252 2198 __O___________ -1 22.0000 158.000 0 19 1006 11 347
1970196N19154 1970 64 WP MM NOT_NAMED 1970-07-16 21:00:00 TS 22.5374 157.818 main 2198 2136 __P___________ -1 22.5374 157.818 0 21 1005 11 335
1970196N19154 1970 64 WP MM NOT_NAMED 1970-07-17 00:00:00 TS 23.0000 157.500 main 2136 2084 __O___________ -1 23.0000 157.500 1 23 1004 10 316
1970196N19154 1970 64 WP MM NOT_NAMED 1970-07-17 03:00:00 TS 23.2803 157.050 main 2076 2032 __P___________ -1 23.2803 157.050 1 23 1004 10 301
1970196N19154 1970 64 WP MM NOT_NAMED 1970-07-17 06:00:00 TS 23.5000 156.600 main 2032 1987 __O___________ -1 23.5000 156.600 1 23 1004 9 305
1970196N19154 1970 64 WP MM NOT_NAMED 1970-07-17 09:00:00 TS 23.7699 156.290 main 1987 1949 __P___________ -1 23.7699 156.290 1 23 1004 8 323
1970196N19154 1970 64 WP MM NOT_NAMED 1970-07-17 12:00:00 TS 24.1000 156.100 main 1949 1917 __O___________ -1 24.1000 156.100 1 23 1004 8 344
1970196N19154 1970 64 WP MM NOT_NAMED 1970-07-17 15:00:00 TS 24.5574 156.050 main 1902 1871 __P___________ -1 24.5574 156.050 1 23 1004 9 355
1970196N19154 1970 64 WP MM NOT_NAMED 1970-07-17 18:00:00 TS 25.0000 156.000 main 1871 1834 __O___________ -1 25.0000 156.000 1 23 1004 8 341
1970196N19154 1970 64 WP MM NOT_NAMED 1970-07-17 21:00:00 TS 25.2801 155.780 main 1834 1796 __P___________ -1 25.2801 155.780 1 23 1004 7 318
1970196N19154 1970 64 WP MM NOT_NAMED 1970-07-18 00:00:00 TS 25.5000 155.500 main 1796 1766 __O___________ -1 25.5000 155.500 1 23 1004 7 315
1970196N19154 1970 64 WP MM NOT_NAMED 1970-07-18 03:00:00 TS 25.7500 155.250 main 1759 1722 __P___________ -1 25.7500 155.250 1 21 1004 7 318
1970196N19154 1970 64 WP MM NOT_NAMED 1970-07-18 06:00:00 TS 26.0000 155.000 main 1722 1677 __O___________ -1 26.0000 155.000 0 19 1004 7 318
1970196N19154 1970 64 WP MM NOT_NAMED 1970-07-18 09:00:00 TS 26.2650 154.735 main 1677 1647 __P___________ -1 26.2650 154.735 0 19 1004 7 318
1970196N19154 1970 64 WP MM NOT_NAMED 1970-07-18 12:00:00 TS 26.5000 154.500 main 1647 1618 __O___________ -1 26.5000 154.500 0 19 1004 5 318
1970196N19154 1970 64 WP MM NOT_NAMED 1970-07-18 15:00:00 TS 26.6724 154.327 main 1618 1603 __P___________ -1 26.6724 154.327 0 19 1004 4 318
1970196N19154 1970 64 WP MM NOT_NAMED 1970-07-18 18:00:00 TS 26.8000 154.200 main 1603 1588 __O___________ -1 26.8000 154.200 0 19 1004 3 319
1970196N19154 1970 64 WP MM NOT_NAMED 1970-07-18 21:00:00 TS 26.9150 154.092 main 1588 1573 __P___________ -1 26.9150 154.092 0 19 1004 3 318
1970196N19154 1970 64 WP MM NOT_NAMED 1970-07-19 00:00:00 TS 27.0000 154.000 main 1573 1558 __O___________ -1 27.0000 154.000 0 19 1004 2 311
1970196N19154 1970 64 WP MM NOT_NAMED 1970-07-19 03:00:00 TS 27.0575 153.907 main 1558 1551 __P___________ -1 27.0575 153.907 0 19 1004 2 300
1970196N19154 1970 64 WP MM NOT_NAMED 1970-07-19 06:00:00 TS 27.1000 153.800 main 1551 1536 __O___________ -1 27.1000 153.800 0 19 1004 2 296
1970196N19154 1970 64 WP MM NOT_NAMED 1970-07-19 09:00:00 TS 27.1650 153.658 main 1536 1521 __P___________ -1 27.1650 153.658 0 19 1004 3 291
1970196N19154 1970 64 WP MM NOT_NAMED 1970-07-19 12:00:00 TS 27.2000 153.500 main 1521 1514 __O___________ -1 27.2000 153.500 0 19 1004 3 270
1970196N19154 1970 64 WP MM NOT_NAMED 1970-07-19 15:00:00 TS 27.1650 153.342 main 1507 1507 __P___________ -1 27.1650 153.342 0 19 1004 3 249
1970196N19154 1970 64 WP MM NOT_NAMED 1970-07-19 18:00:00 TS 27.1000 153.200 main 1507 1500 __O___________ -1 27.1000 153.200 0 19 1004 2 249
1970196N19154 1970 64 WP MM NOT_NAMED 1970-07-19 21:00:00 TS 27.0800 153.100 main 1500 1492 __P___________ -1 27.0800 153.100 0 19 1004 2 240
1970196N19154 1970 64 WP MM NOT_NAMED 1970-07-20 00:00:00 TS 27.0000 153.000 main 1500 1500 __O___________ -1 27.0000 153.000 0 19 1004 4 217
1970196N19154 1970 64 WP MM NOT_NAMED 1970-07-20 03:00:00 TS 26.7800 152.850 main 1501 1501 __P___________ -1 26.7800 152.850 0 19 1004 6 208
1970196N19154 1970 64 WP MM NOT_NAMED 1970-07-20 06:00:00 TS 26.5000 152.700 main 1518 1518 __O___________ -1 26.5000 152.700 0 19 1004 6 207
1970196N19154 1970 64 WP MM NOT_NAMED 1970-07-20 09:00:00 TS 26.2349 152.540 main 1528 1528 __P___________ -1 26.2349 152.540 0 1004 5 200
1970196N19154 1970 64 WP MM NOT_NAMED 1970-07-20 12:00:00 TS 26.0000 152.500 main 1543 1543 __O___________ -1 26.0000 152.500 0 1004 5 162
1970196N19154 1970 64 WP MM NOT_NAMED 1970-07-20 15:00:00 TS 25.7976 152.698 main 1573 1573 __P___________ -1 25.7976 152.698 0 1004 5 124
1970196N19154 1970 64 WP MM NOT_NAMED 1970-07-20 18:00:00 TS 25.7000 153.000 main 1603 1603 __O___________ -1 25.7000 153.000 0 1004 5 95
1970196N19154 1970 64 WP MM NOT_NAMED 1970-07-20 21:00:00 TS 25.7550 153.250 main 1609 1609 __P___________ -1 25.7550 153.250 0 1004 5 66
1970196N19154 1970 64 WP MM NOT_NAMED 1970-07-21 00:00:00 TS 25.9000 153.500 main 1621 1620 __O___________ -1 25.9000 153.500 0 1005 5 58
1970196N19154 1970 64 WP MM NOT_NAMED 1970-07-21 03:00:00 TS 26.0197 153.713 main 1628 1626 __P___________ -1 26.0197 153.713 0 1005 5 56
1970196N19154 1970 64 WP MM NOT_NAMED 1970-07-21 06:00:00 TS 26.2000 154.000 main 1633 1633 __O___________ -1 26.2000 154.000 0 1005 8 56
1970196N19154 1970 64 WP MM NOT_NAMED 1970-07-21 09:00:00 TS 26.4777 154.462 main 1647 1647 __P___________ -1 26.4777 154.462 0 1005 11 56
1970196N19154 1970 64 WP MM NOT_NAMED 1970-07-21 12:00:00 TS 26.8000 155.000 main 1663 1663 __O___________ -1 26.8000 155.000 0 1006 11 56
1970196N19154 1970 64 WP MM NOT_NAMED 1970-07-21 15:00:00 TS 27.0998 155.500 main 1680 1680 __P___________ -1 27.0998 155.500 0 1006 11 56
1970196N19154 1970 64 WP MM NOT_NAMED 1970-07-21 18:00:00 TS 27.4000 156.000 main 1699 1699 __O___________ -1 27.4000 156.000 0 1006 11 55
1970196N19154 1970 64 WP MM NOT_NAMED 1970-07-21 21:00:00 TS 27.7222 156.493 main 1719 1712 __P___________ -1 27.7222 156.493 0 1006 11 56
1970196N19154 1970 64 WP MM NOT_NAMED 1970-07-22 00:00:00 TS 28.0000 157.000 main 1740 1740 __O___________ -1 28.0000 157.000 0 1006 10 64
1970196N19154 1970 64 WP MM NOT_NAMED 1970-07-22 03:00:00 TS 28.1800 157.558 main 1777 1777 __P___________ -1 28.1800 157.558 0 1006 10 73
1970196N19154 1970 64 WP MM NOT_NAMED 1970-07-22 06:00:00 TS 28.3000 158.100 main 1813 1813 __O___________ -1 28.3000 158.100 0 1006 9 77
1970196N19154 1970 64 WP MM NOT_NAMED 1970-07-22 09:00:00 TS 28.3849 158.588 main 1849 1849 __P___________ -1 28.3849 158.588 0 1006 8 76
1970196N19154 1970 64 WP MM NOT_NAMED 1970-07-22 12:00:00 TS 28.5000 159.000 main 1877 1877 __O___________ -1 28.5000 159.000 0 1006 8 65
1970196N19154 1970 64 WP MM NOT_NAMED 1970-07-22 15:00:00 TS 28.7125 159.375 main 1900 1895 __P___________ -1 28.7125 159.375 0 1007 7 46
1970196N19154 1970 64 WP MM NOT_NAMED 1970-07-22 18:00:00 TS 29.0000 159.600 main 1901 1886 __O___________ -1 29.0000 159.600 0 1008 7 20
1970196N19154 1970 64 WP MM NOT_NAMED 1970-07-22 21:00:00 TS 29.3273 159.640 main 1886 1857 __P___________ -1 29.3273 159.640 0 1008 7 353
1970196N19154 1970 64 WP MM NOT_NAMED 1970-07-23 00:00:00 TS 29.7000 159.500 main 1857 1821 __O___________ -1 29.7000 159.500 0 1008 9 337
1970196N19154 1970 64 WP MM NOT_NAMED 1970-07-23 03:00:00 TS 30.1300 159.253 main 1821 1767 __P___________ -1 30.1300 159.253 0 1008 10 327
1970196N19154 1970 64 WP MM NOT_NAMED 1970-07-23 06:00:00 TS 30.5000 158.900 main 1767 1723 __O___________ -1 30.5000 158.900 0 1008 9 307
1970196N19154 1970 64 WP MM NOT_NAMED 1970-07-23 09:00:00 TS 30.6579 158.432 main 1715 1684 __P___________ -1 30.6579 158.432 0 1009 8 294
1970196N19154 1970 64 WP MM NOT_NAMED 1970-07-23 12:00:00 TS 30.8000 158.100 main 1684 1671 __O___________ -1 30.8000 158.100 0 1010 5 333
1970196N19154 1970 64 WP MM NOT_NAMED 1970-07-23 15:00:00 TS 31.1348 158.145 main 1671 1671 __P___________ -1 31.1348 158.145 0 1010 7 20
1970196N19154 1970 64 WP MM NOT_NAMED 1970-07-23 18:00:00 TS 31.5000 158.400 main 1681 1677 __O___________ -1 31.5000 158.400 0 1010 7 35
1970196N19154 1970 64 WP MM NOT_NAMED 1970-07-23 21:00:00 TS 31.6739 158.583 main 1691 1691 __P___________ -1 31.6739 158.583 0 1010 7 46
1970196N19154 1970 64 WP MM NOT_NAMED 1970-07-24 00:00:00 TS 32.0000 159.000 main 1711 1675 __O___________ -1 32.0000 159.000 0 1010 15 45
1970196N19154 1970 64 WP MM NOT_NAMED 1970-07-24 03:00:00 TS 32.7541 159.872 main 1669 1634 __P___________ -1 32.7541 159.872 0 1011 23 43
1970196N19154 1970 64 WP MM NOT_NAMED 1970-07-24 06:00:00 TS 33.7000 160.900 main 1630 1588 __O___________ -1 33.7000 160.900 0 1012 24 40
1970196N19154 1970 64 WP MM NOT_NAMED 1970-07-24 09:00:00 TS 34.6194 161.762 main 1593 1550 __P___________ -1 34.6194 161.762 0 1013 22 36
1970196N19154 1970 64 WP MM NOT_NAMED 1970-07-24 12:00:00 TS 35.5000 162.500 main 1550 __O___________ -1 35.5000 162.500 0 1014 21 34

Digital Typhoon Data and Search

About IBTrACS Database

This database is a web-friendly format of International Best Track Archive for Climate Stewardship (IBTrACS), a global best track data archive curated by NOAA dating back to 1842.

Updated: 2021-10-19